Time;durP1;ratioP1;P1;durP2;ratioP2;P2;SDS_P1;SDS_P2;PMS_P1;PMS_P2;Temp;Humidity;BMP_temperature;BMP_pressure;BME280_temperature;BME280_humidity;BME280_pressure;Samples;Min_cycle;Max_cycle;Signal;HPM_P1;HPM_P2
2022/12/25 00:02:17;;;;;;;;;26.00;24.00;;;;;11.81;58.50;98893.59;6239454;28;96732;-64
2022/12/25 00:05:22;;;;;;;;;28.00;26.00;;;;;11.81;58.37;98896.31;6239333;28;96982;-61
2022/12/25 00:08:26;;;;;;;;;30.80;26.00;;;;;11.83;58.60;98902.28;6238617;27;96403;-62
2022/12/25 00:11:29;;;;;;;;;24.60;23.00;;;;;11.81;58.38;98907.09;6238820;28;96212;-61
2022/12/25 00:14:32;;;;;;;;;25.00;24.00;;;;;11.81;58.57;98907.09;6239370;28;96406;-61
2022/12/25 00:17:36;;;;;;;;;28.20;25.80;;;;;11.77;58.61;98903.22;6236403;28;96311;-63
2022/12/25 00:20:41;;;;;;;;;29.80;25.60;;;;;11.72;58.87;98919.25;6232995;28;96529;-62
2022/12/25 00:23:44;;;;;;;;;27.60;25.00;;;;;11.66;58.85;98912.06;6232705;27;96871;-63
2022/12/25 00:26:47;;;;;;;;;27.00;23.40;;;;;11.66;59.02;98917.47;6222430;28;97769;-62
2022/12/25 00:29:51;;;;;;;;;30.40;25.40;;;;;11.55;59.06;98904.72;6233866;28;98173;-61
2022/12/25 00:32:55;;;;;;;;;24.00;21.00;;;;;11.71;59.38;98925.72;6235873;27;96223;-61
2022/12/25 00:36:01;;;;;;;;;27.00;23.60;;;;;11.70;59.44;98922.19;6234994;28;96751;-63
2022/12/25 00:39:05;;;;;;;;;23.80;21.80;;;;;11.72;59.34;98924.66;6238432;28;96891;-60
2022/12/25 00:42:19;;;;;;;;;24.00;22.00;;;;;11.71;59.12;98928.41;6238099;28;96688;-59
2022/12/25 00:45:22;;;;;;;;;24.60;21.20;;;;;11.71;59.28;98934.63;6207769;28;96562;-62
2022/12/25 00:48:27;;;;;;;;;25.40;21.80;;;;;11.69;59.25;98939.44;6219288;28;96647;-62
2022/12/25 00:51:32;;;;;;;;;24.60;22.00;;;;;11.70;59.07;98945.66;6237288;27;97355;-62
2022/12/25 00:54:35;;;;;;;;;26.50;24.50;;;;;11.67;59.11;98948.81;6238038;28;96454;-62
2022/12/25 00:57:39;;;;;;;;;27.60;25.60;;;;;11.65;59.30;98957.13;6186626;28;98768;-62
2022/12/25 01:00:43;;;;;;;;;29.00;26.00;;;;;11.63;59.36;98972.72;6237670;28;97507;-62
2022/12/25 01:03:46;;;;;;;;;30.00;25.75;;;;;11.58;59.43;98983.38;6238614;28;96441;-63
2022/12/25 01:06:51;;;;;;;;;29.00;25.00;;;;;11.46;59.79;98987.06;6217528;28;97297;-62
2022/12/25 01:13:16;;;;;;;;;27.00;25.00;;;;;11.39;60.42;98983.63;6216931;28;96481;-61
2022/12/25 01:16:21;;;;;;;;;23.20;21.60;;;;;11.35;60.83;98982.41;6237055;28;96567;-61
2022/12/25 01:19:24;;;;;;;;;25.00;24.60;;;;;11.27;60.81;98976.28;6237627;28;96930;-60
2022/12/25 01:22:29;;;;;;;;;22.50;21.25;;;;;11.33;61.08;98985.34;6222640;28;96396;-62
2022/12/25 01:25:33;;;;;;;;;26.20;24.60;;;;;11.29;61.33;98992.22;6235172;28;96917;-62
2022/12/25 01:28:37;;;;;;;;;23.40;21.80;;;;;11.14;61.46;98964.81;6237637;28;96445;-61
2022/12/25 01:31:41;;;;;;;;;24.00;23.00;;;;;11.32;61.81;98999.91;6237533;28;96300;-60
2022/12/25 01:34:44;;;;;;;;;24.40;23.40;;;;;11.37;61.66;99013.56;6239386;27;96307;-60
2022/12/25 01:37:57;;;;;;;;;22.20;21.20;;;;;11.31;61.89;99006.34;6237670;28;96249;-61
2022/12/25 01:41:00;;;;;;;;;22.00;21.00;;;;;11.37;61.75;99012.72;6235528;28;96636;-61
2022/12/25 01:44:06;;;;;;;;;24.00;21.00;;;;;11.38;61.64;99009.81;6208059;28;96610;-61
2022/12/25 01:47:10;;;;;;;;;23.00;22.00;;;;;11.40;61.78;99005.00;6221381;28;96301;-61
2022/12/25 01:50:14;;;;;;;;;23.40;21.40;;;;;11.48;61.54;99003.88;6237923;28;96442;-60
2022/12/25 01:53:19;;;;;;;;;25.80;21.40;;;;;11.41;61.38;98985.06;6237308;28;97259;-60
2022/12/25 01:56:23;;;;;;;;;24.80;24.40;;;;;11.45;61.88;98997.03;6237148;28;96794;-61
2022/12/25 01:59:27;;;;;;;;;23.80;23.00;;;;;11.40;61.94;98999.59;6236173;28;96309;-61
2022/12/25 02:02:32;;;;;;;;;25.00;21.00;;;;;11.41;61.82;98995.84;6239354;28;96529;-61
2022/12/25 02:05:35;;;;;;;;;25.60;24.40;;;;;11.46;61.85;99003.28;6241044;28;96259;-61
2022/12/25 02:08:40;;;;;;;;;25.00;24.40;;;;;11.51;61.72;99014.22;6239198;28;96450;-63
2022/12/25 02:11:57;;;;;;;;;27.67;24.00;;;;;11.47;61.38;99011.16;6221473;28;96617;-61
2022/12/25 02:15:04;;;;;;;;;22.50;21.25;;;;;11.44;61.76;99008.06;6241343;28;96673;-61
2022/12/25 02:18:13;;;;;;;;;25.00;22.80;;;;;11.56;61.68;99028.72;6240628;28;96396;-60
2022/12/25 02:21:39;;;;;;;;;22.00;21.00;;;;;11.55;61.80;99024.34;6221769;28;96699;-60
2022/12/25 02:25:07;;;;;;;;;26.00;22.00;;;;;11.56;61.83;99027.88;6239677;28;96529;-61
2022/12/25 02:28:19;;;;;;;;;22.00;21.50;;;;;11.58;61.70;99032.00;6238665;28;96347;-59
2022/12/25 02:31:32;;;;;;;;;21.00;19.00;;;;;11.62;61.46;99032.38;6224415;28;97025;-60
2022/12/25 02:34:43;;;;;;;;;22.00;20.00;;;;;11.64;61.65;99032.97;6239013;28;96432;-61
2022/12/25 02:37:52;;;;;;;;;21.40;20.00;;;;;11.65;61.76;99037.34;6240173;28;96224;-62
2022/12/25 02:40:58;;;;;;;;;24.40;22.80;;;;;11.69;61.45;99043.94;6240494;27;96851;-61
2022/12/25 03:08:04;;;;;;;;;22.25;19.25;;;;;11.83;60.67;99061.66;6237401;28;96686;-63
2022/12/25 03:17:59;;;;;;;;;21.00;20.00;;;;;11.78;60.67;99066.13;6239750;28;96219;-61
2022/12/25 03:27:57;;;;;;;;;21.00;19.00;;;;;11.58;61.06;99064.41;6147124;28;97962;-60
2022/12/25 03:31:12;;;;;;;;;23.25;20.00;;;;;11.55;61.21;99059.44;6236280;28;96240;-60
2022/12/25 04:36:10;;;;;;;;;19.00;18.00;;;;;10.63;63.08;99087.22;6217189;28;97884;-60
2022/12/25 04:39:14;;;;;;;;;22.00;21.00;;;;;10.69;63.55;99099.00;6223010;28;96229;-61
2022/12/25 04:42:18;;;;;;;;;22.40;21.00;;;;;10.63;63.62;99081.00;6227859;28;97626;-61
2022/12/25 04:45:22;;;;;;;;;23.00;20.00;;;;;10.79;63.51;99102.88;6232497;28;96713;-61
2022/12/25 04:48:26;;;;;;;;;24.20;21.20;;;;;10.76;63.50;99102.47;6222400;28;96515;-61
2022/12/25 04:51:29;;;;;;;;;21.40;19.00;;;;;10.87;63.43;99109.88;6219933;28;96522;-61
2022/12/25 04:54:33;;;;;;;;;20.00;19.80;;;;;10.91;63.54;99116.47;6195003;28;96657;-61
2022/12/25 04:57:37;;;;;;;;;21.80;20.00;;;;;10.95;63.42;99120.38;6215287;28;96353;-61
2022/12/25 05:00:41;;;;;;;;;20.60;19.60;;;;;11.01;63.44;99116.00;6230091;28;96490;-60
2022/12/25 05:03:44;;;;;;;;;21.20;21.00;;;;;11.03;63.22;99120.13;6217856;28;96941;-60
2022/12/25 05:06:47;;;;;;;;;21.00;20.20;;;;;10.96;63.46;99130.13;6239141;27;96453;-60
2022/12/25 05:09:51;;;;;;;;;23.00;21.00;;;;;10.98;63.18;99124.53;6232061;27;96267;-60
2022/12/25 05:12:56;;;;;;;;;25.00;23.00;;;;;10.98;63.00;99122.66;6231721;27;96743;-61
2022/12/25 05:15:59;;;;;;;;;20.75;18.00;;;;;10.92;62.71;99122.69;6247380;27;96247;-61
2022/12/25 05:19:03;;;;;;;;;24.00;22.40;;;;;10.78;62.63;99120.09;6231914;27;96500;-60
2022/12/25 05:22:06;;;;;;;;;22.00;20.00;;;;;10.63;63.12;99102.56;6245267;27;96682;-61
2022/12/25 05:25:10;;;;;;;;;24.00;21.00;;;;;10.71;63.17;99115.78;6250258;27;96473;-60
2022/12/25 05:28:14;;;;;;;;;22.20;21.20;;;;;10.70;63.30;99131.13;6252864;27;97833;-60
2022/12/25 05:31:18;;;;;;;;;21.00;20.00;;;;;10.68;63.13;99127.00;6219484;28;96681;-60
2022/12/25 05:34:22;;;;;;;;;23.40;21.00;;;;;10.64;63.56;99123.09;6239611;27;96272;-61
2022/12/25 05:37:26;;;;;;;;;22.50;20.00;;;;;10.55;63.76;99127.91;6236205;27;96486;-60
2022/12/25 05:40:29;;;;;;;;;25.00;23.00;;;;;10.52;63.78;99133.72;6239935;27;96804;-61
2022/12/25 05:43:34;;;;;;;;;22.50;19.50;;;;;10.51;64.23;99125.84;6226145;28;96308;-61
2022/12/25 05:46:38;;;;;;;;;23.00;21.00;;;;;10.51;64.49;99134.75;6249847;27;96286;-61
2022/12/25 05:49:42;;;;;;;;;21.00;20.00;;;;;10.54;64.38;99147.00;6238514;27;96261;-60
2022/12/25 05:52:45;;;;;;;;;24.00;22.60;;;;;10.59;64.52;99155.28;6241066;28;96461;-61
2022/12/25 05:55:48;;;;;;;;;25.50;24.00;;;;;10.49;65.04;99146.81;6259431;27;96556;-60
2022/12/25 05:58:54;;;;;;;;;28.25;25.25;;;;;10.59;65.09;99171.44;6261369;27;96309;-61
2022/12/25 06:01:57;;;;;;;;;24.00;22.00;;;;;10.65;65.17;99165.19;6269528;27;96343;-61
2022/12/25 06:05:00;;;;;;;;;22.40;20.40;;;;;10.72;64.77;99165.97;6241535;27;96544;-60
2022/12/25 06:08:04;;;;;;;;;23.75;20.50;;;;;10.76;64.89;99186.06;6248043;27;96525;-60
2022/12/25 06:11:09;;;;;;;;;21.00;18.00;;;;;10.83;65.04;99181.47;6252186;27;96313;-61
2022/12/25 06:14:15;;;;;;;;;22.60;21.20;;;;;10.87;65.04;99182.69;6237410;27;96577;-60
2022/12/25 06:17:19;;;;;;;;;24.60;22.20;;;;;10.91;64.64;99183.09;6260213;27;96564;-62
2022/12/25 06:20:22;;;;;;;;;24.00;21.50;;;;;10.84;64.33;99157.00;6242228;27;96775;-62
2022/12/25 06:23:25;;;;;;;;;24.00;23.40;;;;;11.02;64.37;99185.94;6230860;27;96478;-61
2022/12/25 06:26:29;;;;;;;;;22.00;20.00;;;;;11.05;64.15;99193.56;6235647;28;98857;-61
2022/12/25 06:29:34;;;;;;;;;22.20;20.80;;;;;11.06;63.79;99189.84;6232448;27;96328;-62
2022/12/25 06:32:37;;;;;;;;;20.00;19.00;;;;;11.06;63.47;99195.22;6227551;28;96895;-62
2022/12/25 06:35:41;;;;;;;;;20.50;18.50;;;;;11.06;63.51;99208.72;6223855;28;96230;-61
2022/12/25 06:38:45;;;;;;;;;24.00;22.40;;;;;11.08;63.65;99209.34;6242088;28;96645;-62
2022/12/25 06:41:48;;;;;;;;;25.00;22.00;;;;;11.11;63.32;99208.06;6234309;27;96389;-61
2022/12/25 06:44:53;;;;;;;;;22.00;21.75;;;;;11.15;63.73;99202.03;6235425;27;96217;-61
2022/12/25 06:47:56;;;;;;;;;22.80;21.00;;;;;11.23;63.41;99217.97;6247242;27;96887;-62
2022/12/25 06:51:00;;;;;;;;;22.33;20.00;;;;;11.26;63.23;99214.81;6217099;27;96251;-61
2022/12/25 06:54:03;;;;;;;;;24.60;22.00;;;;;11.29;63.25;99216.25;6234616;28;96661;-61
2022/12/25 06:57:06;;;;;;;;;21.00;20.00;;;;;11.32;63.43;99223.09;6228188;27;96376;-61
2022/12/25 07:00:13;;;;;;;;;23.00;20.00;;;;;11.40;63.23;99239.84;6256555;27;96290;-61
2022/12/25 07:03:21;;;;;;;;;22.60;20.60;;;;;11.44;63.15;99253.72;6245322;27;97254;-59
2022/12/25 07:06:24;;;;;;;;;23.80;22.20;;;;;11.50;62.70;99248.28;6254753;27;96322;-61
2022/12/25 07:09:28;;;;;;;;;24.00;21.00;;;;;11.47;62.78;99237.13;6237519;27;96310;-60
2022/12/25 07:12:31;;;;;;;;;20.00;17.00;;;;;11.58;62.72;99258.81;6228785;28;96853;-62
2022/12/25 07:15:36;;;;;;;;;19.60;19.00;;;;;11.66;62.82;99271.25;6237436;27;98384;-62
2022/12/25 07:18:40;;;;;;;;;19.40;19.00;;;;;11.70;62.15;99273.28;6255928;27;96816;-62
2022/12/25 07:21:45;;;;;;;;;20.00;19.00;;;;;11.73;62.05;99272.88;6245659;27;96323;-60
2022/12/25 07:24:48;;;;;;;;;19.00;18.50;;;;;11.79;61.95;99281.97;6250110;27;96453;-62
2022/12/25 07:27:51;;;;;;;;;20.00;19.00;;;;;11.84;61.82;99286.72;6215875;27;98165;-61
2022/12/25 07:31:01;;;;;;;;;18.00;17.00;;;;;11.92;61.45;99300.78;6249120;27;96934;-61
2022/12/25 07:34:05;;;;;;;;;23.60;20.40;;;;;11.97;61.56;99298.22;6255674;27;96208;-62
2022/12/25 07:37:08;;;;;;;;;24.00;20.50;;;;;12.05;61.31;99310.66;6255090;27;96714;-61
2022/12/25 07:40:13;;;;;;;;;23.75;22.50;;;;;12.06;61.19;99318.56;6247816;27;97613;-62
2022/12/25 07:43:16;;;;;;;;;23.00;21.00;;;;;12.12;61.19;99322.22;6239452;27;96723;-61
2022/12/25 07:46:22;;;;;;;;;24.20;22.00;;;;;12.15;60.79;99325.34;6260851;27;96326;-61
2022/12/25 07:49:26;;;;;;;;;22.00;20.00;;;;;12.18;60.76;99321.34;6248663;27;96246;-61
2022/12/25 07:52:29;;;;;;;;;22.00;20.00;;;;;12.24;60.74;99327.75;6250274;27;97524;-61
2022/12/25 07:55:32;;;;;;;;;22.00;21.00;;;;;12.28;60.64;99328.94;6258102;27;96564;-61
2022/12/25 07:58:36;;;;;;;;;23.60;22.00;;;;;12.29;60.44;99342.25;6238238;27;96683;-62
2022/12/25 08:01:41;;;;;;;;;27.20;24.00;;;;;12.29;60.43;99341.44;6249561;27;97984;-60
2022/12/25 08:04:45;;;;;;;;;21.00;19.00;;;;;12.28;60.17;99342.47;6252785;27;96802;-61
2022/12/25 08:07:51;;;;;;;;;25.00;22.00;;;;;12.24;60.16;99338.56;6250250;27;96409;-61
2022/12/25 08:11:00;;;;;;;;;22.40;22.00;;;;;12.18;60.27;99340.25;6260625;27;96603;-61
2022/12/25 08:14:05;;;;;;;;;22.00;20.20;;;;;12.21;60.33;99345.25;6220939;28;96252;-60
2022/12/25 08:17:10;;;;;;;;;23.40;20.80;;;;;12.28;60.10;99340.59;6238954;28;96338;-61
2022/12/25 08:20:14;;;;;;;;;21.00;20.00;;;;;12.29;60.12;99344.13;6239584;28;97524;-60
2022/12/25 08:23:18;;;;;;;;;23.00;22.25;;;;;12.07;59.92;99279.66;6226028;28;99616;-60
2022/12/25 08:26:23;;;;;;;;;23.00;22.00;;;;;12.65;59.44;99341.50;6228816;28;96550;-62
2022/12/25 08:29:27;;;;;;;;;22.60;20.60;;;;;13.67;57.87;99345.25;6224145;28;96927;-62
2022/12/25 08:32:34;;;;;;;;;20.20;18.00;;;;;14.39;54.66;99343.31;6231358;28;96180;-62
2022/12/25 08:35:37;;;;;;;;;20.00;20.00;;;;;15.13;52.38;99340.66;6229869;28;96332;-65
2022/12/25 08:38:41;;;;;;;;;22.60;21.60;;;;;15.95;50.52;99348.47;6219450;28;96859;-61
2022/12/25 08:41:44;;;;;;;;;24.60;22.00;;;;;17.03;47.59;99345.28;6247148;27;96457;-60
2022/12/25 08:44:47;;;;;;;;;21.80;20.60;;;;;19.74;42.45;99330.53;6236448;27;96736;-62
2022/12/25 08:47:55;;;;;;;;;19.00;18.00;;;;;22.60;35.97;99338.34;6238120;28;96737;-62
2022/12/25 08:50:59;;;;;;;;;19.40;18.80;;;;;24.96;31.77;99329.84;6237386;28;96271;-62
2022/12/25 08:54:03;;;;;;;;;18.00;17.40;;;;;26.72;28.64;99330.53;6234472;27;96469;-63
2022/12/25 08:57:06;;;;;;;;;17.00;16.00;;;;;26.32;28.04;99331.56;6238608;27;96829;-61
2022/12/25 09:00:10;;;;;;;;;17.80;16.80;;;;;26.43;28.77;99330.19;6239345;28;96678;-64
2022/12/25 09:03:15;;;;;;;;;17.00;17.00;;;;;25.38;29.00;99312.97;6237020;27;96717;-61
2022/12/25 09:06:19;;;;;;;;;19.00;17.40;;;;;24.14;30.31;99316.59;6237224;28;97429;-61
2022/12/25 09:09:26;;;;;;;;;17.60;17.00;;;;;22.87;31.72;99324.91;6241102;28;96505;-62
2022/12/25 09:12:29;;;;;;;;;22.80;20.00;;;;;21.83;33.58;99342.78;6240958;28;96394;-62
2022/12/25 09:15:32;;;;;;;;;18.40;17.00;;;;;20.88;35.03;99353.81;6221688;28;96548;-60
2022/12/25 09:18:37;;;;;;;;;18.00;17.50;;;;;20.01;36.63;99354.09;6222784;28;100049;-60
2022/12/25 09:21:40;;;;;;;;;18.00;18.00;;;;;19.20;37.77;99360.16;6238339;27;96992;-60
2022/12/25 09:24:44;;;;;;;;;25.00;23.00;;;;;18.55;39.13;99366.03;6239306;28;96342;-62
2022/12/25 09:27:48;;;;;;;;;22.00;21.00;;;;;17.96;40.41;99367.94;6237869;27;96431;-62
2022/12/25 09:30:51;;;;;;;;;22.00;18.00;;;;;17.48;41.39;99360.56;6236553;27;96247;-61
2022/12/25 09:33:58;;;;;;;;;20.80;18.20;;;;;17.07;42.23;99365.50;6234626;27;96445;-62
2022/12/25 09:37:01;;;;;;;;;21.00;19.00;;;;;16.73;42.98;99362.03;6228803;27;97425;-60
2022/12/25 09:40:06;;;;;;;;;23.50;21.50;;;;;16.51;43.90;99363.03;6236692;27;96815;-62
2022/12/25 09:43:15;;;;;;;;;21.00;17.60;;;;;16.27;44.57;99374.06;6220838;28;96658;-61
2022/12/25 09:46:23;;;;;;;;;24.60;22.40;;;;;16.17;45.01;99373.09;6232739;27;97578;-62
2022/12/25 09:49:37;;;;;;;;;21.60;20.00;;;;;16.09;45.54;99373.47;6208119;28;96714;-61
2022/12/25 09:52:48;;;;;;;;;22.00;19.00;;;;;16.02;45.67;99371.75;6234501;28;96395;-60
2022/12/25 09:56:01;;;;;;;;;22.00;21.00;;;;;15.93;45.87;99383.28;6234543;28;97343;-60
2022/12/25 09:59:18;;;;;;;;;19.80;18.80;;;;;16.04;45.49;99376.91;6223090;27;96781;-61
2022/12/25 10:03:02;;;;;;;;;20.00;19.00;;;;;16.46;44.91;99377.38;6240280;28;96323;-61
2022/12/25 10:06:16;;;;;;;;;20.40;18.00;;;;;17.26;43.34;99364.13;6218274;27;96467;-62
2022/12/25 10:09:42;;;;;;;;;19.00;17.40;;;;;18.12;42.10;99386.94;6240128;28;96414;-63
2022/12/25 10:12:57;;;;;;;;;16.50;16.00;;;;;19.46;39.49;99375.59;6233602;28;96240;-61
2022/12/25 10:16:12;;;;;;;;;17.00;16.00;;;;;21.19;36.11;99387.50;6235497;28;96527;-62
2022/12/25 10:19:29;;;;;;;;;17.80;16.80;;;;;22.40;33.99;99392.38;6243329;27;96774;-61
2022/12/25 10:22:40;;;;;;;;;14.00;13.00;;;;;23.97;30.56;99390.69;6242725;27;97199;-62
2022/12/25 10:25:44;;;;;;;;;16.50;13.50;;;;;25.72;28.67;99380.75;6246451;27;96459;-62
2022/12/25 10:28:55;;;;;;;;;13.40;12.60;;;;;27.27;26.67;99384.72;6246811;27;96963;-62
2022/12/25 10:31:59;;;;;;;;;14.00;13.00;;;;;28.54;24.94;99376.94;6243867;27;96929;-61
2022/12/25 10:35:03;;;;;;;;;11.00;9.80;;;;;29.63;23.41;99375.31;6241232;27;96778;-63
2022/12/25 10:38:12;;;;;;;;;11.00;9.00;;;;;30.44;21.80;99360.19;6250887;27;96501;-63
2022/12/25 10:41:33;;;;;;;;;8.80;8.00;;;;;31.16;20.78;99365.19;6252459;27;96277;-62
2022/12/25 10:44:36;;;;;;;;;8.20;8.20;;;;;31.82;20.90;99351.00;6264017;27;96887;-62
2022/12/25 10:47:41;;;;;;;;;12.00;10.00;;;;;32.37;20.40;99344.72;6260336;27;96309;-63
2022/12/25 10:50:45;;;;;;;;;10.40;9.00;;;;;32.55;19.26;99334.06;6250311;27;96423;-63
2022/12/25 10:53:49;;;;;;;;;11.20;9.60;;;;;32.89;18.93;99343.81;6252207;27;97671;-62
2022/12/25 10:56:58;;;;;;;;;9.00;8.60;;;;;33.11;19.08;99329.22;6251334;27;96249;-61
2022/12/25 11:00:01;;;;;;;;;11.00;9.00;;;;;33.13;18.28;99335.25;6238621;27;97823;-63
2022/12/25 11:03:04;;;;;;;;;8.00;7.00;;;;;33.20;18.22;99324.28;6245583;27;96980;-61
2022/12/25 11:06:22;;;;;;;;;7.20;7.20;;;;;33.35;18.31;99311.47;6251601;27;96354;-62
2022/12/25 11:09:27;;;;;;;;;9.00;8.00;;;;;33.51;18.47;99301.88;6243062;27;96473;-63
2022/12/25 11:12:35;;;;;;;;;8.00;8.00;;;;;33.50;17.91;99299.44;6246916;27;96770;-62
2022/12/25 11:15:41;;;;;;;;;9.00;8.00;;;;;33.22;17.88;99280.03;6249431;27;96582;-62
2022/12/25 11:18:47;;;;;;;;;8.80;7.80;;;;;33.38;17.84;99294.78;6242586;27;96465;-63
2022/12/25 11:21:52;;;;;;;;;9.00;9.00;;;;;33.53;18.28;99286.75;6248452;27;96598;-62
2022/12/25 11:24:57;;;;;;;;;9.60;9.60;;;;;33.39;17.99;99293.59;6246887;27;97223;-62
2022/12/25 11:28:02;;;;;;;;;9.00;9.00;;;;;33.28;17.93;99289.72;6235634;27;96565;-62
2022/12/25 11:31:09;;;;;;;;;7.00;7.00;;;;;33.34;17.65;99282.69;6243451;27;97017;-62
2022/12/25 11:34:23;;;;;;;;;9.67;8.00;;;;;33.49;17.56;99281.84;6243910;28;96355;-64
2022/12/25 11:37:35;;;;;;;;;7.40;7.00;;;;;33.46;17.28;99290.16;6251361;27;96675;-63
2022/12/25 11:40:47;;;;;;;;;7.00;6.00;;;;;33.20;17.76;99282.38;6261075;27;96575;-63
2022/12/25 11:43:58;;;;;;;;;7.00;7.00;;;;;33.04;17.50;99275.94;6253507;27;96321;-62
2022/12/25 11:47:11;;;;;;;;;9.00;7.40;;;;;32.99;17.51;99282.59;6250793;27;96436;-62
2022/12/25 11:50:22;;;;;;;;;7.00;7.00;;;;;32.71;16.98;99281.88;6247762;27;96698;-62
2022/12/25 11:53:30;;;;;;;;;7.00;7.00;;;;;32.78;17.58;99281.28;6250697;27;96160;-61
2022/12/25 11:56:37;;;;;;;;;7.00;6.00;;;;;32.62;17.41;99287.63;6247189;28;96650;-63
2022/12/25 11:59:49;;;;;;;;;7.00;7.00;;;;;32.61;17.82;99285.19;6249645;27;96452;-62
2022/12/25 12:02:58;;;;;;;;;7.00;7.00;;;;;32.29;18.07;99289.09;6251264;27;96368;-63
2022/12/25 12:06:05;;;;;;;;;8.00;7.00;;;;;32.32;17.89;99285.56;6255559;27;96257;-63
2022/12/25 12:09:24;;;;;;;;;8.00;8.00;;;;;32.34;18.01;99284.06;6252451;27;96130;-61
2022/12/25 12:12:35;;;;;;;;;6.00;6.00;;;;;32.34;17.98;99274.88;6248591;27;96251;-63
2022/12/25 12:15:43;;;;;;;;;7.60;7.00;;;;;32.27;17.97;99277.44;6243066;27;96924;-64
2022/12/25 12:18:46;;;;;;;;;7.40;7.40;;;;;32.08;18.42;99273.31;6241478;27;97032;-63
2022/12/25 12:21:55;;;;;;;;;9.40;9.40;;;;;31.82;18.42;99265.41;6243589;27;96384;-62
2022/12/25 12:25:01;;;;;;;;;8.80;8.40;;;;;31.63;18.54;99264.41;6218394;28;98972;-66
2022/12/25 12:28:24;;;;;;;;;9.00;9.00;;;;;31.44;19.00;99270.56;6238749;27;96344;-64
2022/12/25 12:31:38;;;;;;;;;8.40;8.00;;;;;31.10;18.87;99269.09;6235021;28;96405;-65
2022/12/25 12:34:46;;;;;;;;;9.00;9.00;;;;;30.84;19.02;99283.31;6236380;28;97501;-66
2022/12/25 12:37:53;;;;;;;;;9.80;9.00;;;;;30.54;19.33;99274.31;6236979;28;97547;-66
2022/12/25 12:41:00;;;;;;;;;10.00;9.50;;;;;30.23;19.83;99267.59;6236730;28;96959;-65
2022/12/25 12:44:06;;;;;;;;;11.80;10.00;;;;;29.84;19.99;99271.69;6234771;27;96649;-66
2022/12/25 12:47:29;;;;;;;;;13.00;10.00;;;;;29.03;20.77;99275.59;6234713;27;96249;-65
2022/12/25 12:50:38;;;;;;;;;11.25;11.25;;;;;28.23;21.32;99270.97;6220003;28;97268;-66
2022/12/25 12:53:43;;;;;;;;;10.40;10.40;;;;;27.35;22.46;99262.91;6234967;27;97017;-65
2022/12/25 12:57:00;;;;;;;;;11.40;10.40;;;;;26.57;23.52;99260.97;6232200;28;96291;-66
2022/12/25 13:00:08;;;;;;;;;12.00;11.40;;;;;25.96;24.48;99276.31;6233436;28;96676;-66
2022/12/25 13:03:32;;;;;;;;;11.67;10.67;;;;;25.32;25.03;99264.50;6235371;27;96540;-67
2022/12/25 13:06:43;;;;;;;;;13.60;12.00;;;;;24.86;25.77;99256.34;6230521;27;97204;-66
2022/12/25 13:10:02;;;;;;;;;11.00;10.80;;;;;24.38;26.35;99246.81;6231709;28;97039;-66
2022/12/25 13:13:14;;;;;;;;;9.60;8.60;;;;;24.04;26.72;99256.16;6230991;28;96607;-65
2022/12/25 13:16:25;;;;;;;;;11.00;11.00;;;;;23.78;27.16;99251.38;6208272;28;97515;-65
2022/12/25 13:19:29;;;;;;;;;11.75;11.00;;;;;23.48;27.62;99264.47;6233307;27;96708;-68
2022/12/25 13:22:34;;;;;;;;;12.67;11.00;;;;;23.02;28.35;99247.72;6235373;27;96903;-65
2022/12/25 13:25:39;;;;;;;;;10.60;10.40;;;;;22.76;28.69;99263.72;6235481;27;97205;-64
2022/12/25 13:28:45;;;;;;;;;11.00;11.00;;;;;22.53;29.06;99249.94;6236866;27;96821;-67
2022/12/25 13:31:50;;;;;;;;;12.40;11.00;;;;;22.19;29.27;99261.78;6234311;27;97497;-65
2022/12/25 13:34:55;;;;;;;;;12.00;11.00;;;;;21.90;30.01;99266.38;6233980;28;96261;-66
2022/12/25 13:37:58;;;;;;;;;13.80;12.00;;;;;21.57;30.52;99260.59;6235238;28;96718;-65
2022/12/25 13:44:26;;;;;;;;;13.00;12.00;;;;;21.11;30.84;99256.44;6232430;27;96616;-67
2022/12/25 13:47:33;;;;;;;;;10.60;9.40;;;;;20.87;31.56;99255.44;6215915;27;97617;-65
2022/12/25 13:50:37;;;;;;;;;13.00;12.00;;;;;20.60;31.85;99266.75;6236085;27;96704;-65
2022/12/25 13:53:40;;;;;;;;;12.00;11.00;;;;;20.24;32.63;99260.47;6235643;27;96512;-65
2022/12/25 13:56:48;;;;;;;;;12.80;10.80;;;;;19.81;33.07;99250.94;6233009;27;97400;-65
2022/12/25 13:59:51;;;;;;;;;11.80;10.40;;;;;19.68;33.50;99260.50;6237686;27;96471;-65
2022/12/25 14:02:56;;;;;;;;;11.50;11.50;;;;;19.28;34.50;99252.19;6239655;27;96851;-65
2022/12/25 14:06:02;;;;;;;;;12.50;11.00;;;;;18.98;34.89;99258.38;6241592;27;96067;-65
2022/12/25 14:09:13;;;;;;;;;13.00;12.25;;;;;18.63;35.33;99267.22;6238419;27;97234;-64
2022/12/25 14:12:18;;;;;;;;;13.25;12.25;;;;;18.32;36.07;99262.63;6237830;27;96395;-65
2022/12/25 14:15:23;;;;;;;;;10.00;9.20;;;;;17.98;37.05;99259.38;6239948;27;96874;-64
2022/12/25 14:18:29;;;;;;;;;13.40;13.00;;;;;17.67;37.45;99264.56;6241196;27;97073;-64
2022/12/25 14:21:37;;;;;;;;;14.00;12.00;;;;;17.36;38.20;99262.56;6243440;27;96628;-65
2022/12/25 14:24:41;;;;;;;;;12.75;12.00;;;;;17.07;38.51;99252.97;6243840;27;96709;-66
2022/12/25 14:27:49;;;;;;;;;13.00;13.00;;;;;16.70;39.56;99248.19;6238331;27;96614;-64
2022/12/25 14:30:53;;;;;;;;;11.00;10.60;;;;;16.37;40.13;99246.31;6226182;28;96760;-64
2022/12/25 14:33:59;;;;;;;;;12.00;10.80;;;;;16.09;40.72;99246.47;6236774;27;96793;-64
2022/12/25 14:37:04;;;;;;;;;13.00;12.00;;;;;15.81;41.24;99258.25;6239818;27;96432;-64
2022/12/25 14:40:23;;;;;;;;;15.75;14.25;;;;;15.49;41.94;99268.00;6244728;27;96940;-64
2022/12/25 14:43:30;;;;;;;;;12.60;11.60;;;;;15.15;42.52;99275.19;6240085;27;96832;-64
2022/12/25 14:46:34;;;;;;;;;17.00;15.00;;;;;14.86;43.31;99268.91;6245812;27;96585;-64
2022/12/25 14:49:39;;;;;;;;;11.75;11.00;;;;;14.61;43.99;99266.50;6238073;27;96754;-64
2022/12/25 14:52:44;;;;;;;;;15.00;15.00;;;;;14.31;44.24;99272.06;6237017;27;96602;-63
2022/12/25 14:55:50;;;;;;;;;15.00;14.00;;;;;14.08;44.83;99263.91;6212172;27;96996;-64
2022/12/25 14:58:56;;;;;;;;;13.00;12.00;;;;;13.89;45.52;99259.66;6235143;27;97669;-64
2022/12/25 15:02:00;;;;;;;;;14.40;14.00;;;;;13.70;45.93;99258.91;6239687;27;96338;-64
2022/12/25 15:05:06;;;;;;;;;14.50;13.50;;;;;13.52;46.16;99247.34;6239093;27;96465;-64
2022/12/25 15:08:25;;;;;;;;;14.00;14.00;;;;;13.32;46.08;99245.75;6236828;27;96538;-63
2022/12/25 15:11:29;;;;;;;;;16.40;15.00;;;;;13.01;46.80;99227.81;6248377;27;96279;-63
2022/12/25 15:14:35;;;;;;;;;13.60;13.60;;;;;12.96;46.90;99256.63;6236971;28;96358;-63
2022/12/25 15:17:38;;;;;;;;;14.00;13.00;;;;;12.84;47.62;99253.88;6236889;27;96382;-64
2022/12/25 15:20:43;;;;;;;;;12.50;11.00;;;;;12.62;48.72;99246.44;6239869;27;97069;-64
2022/12/25 15:23:47;;;;;;;;;15.50;14.50;;;;;12.68;48.14;99261.75;6236961;27;97252;-64
2022/12/25 15:26:52;;;;;;;;;14.40;13.40;;;;;12.62;49.11;99268.06;6218538;28;96212;-64
2022/12/25 15:29:55;;;;;;;;;14.00;12.60;;;;;12.55;48.92;99274.41;6236970;27;96327;-64
2022/12/25 15:33:15;;;;;;;;;15.50;15.50;;;;;12.35;48.64;99259.44;6238343;27;96673;-64
2022/12/25 15:36:20;;;;;;;;;17.00;15.60;;;;;12.43;49.01;99280.75;6233426;27;96613;-64
2022/12/25 15:39:24;;;;;;;;;14.00;14.00;;;;;12.37;49.47;99281.66;6235659;27;96791;-64
2022/12/25 15:42:28;;;;;;;;;16.00;15.00;;;;;12.37;49.65;99284.34;6236198;27;96358;-64
2022/12/25 15:45:31;;;;;;;;;17.60;15.00;;;;;12.34;50.23;99282.09;6242219;27;96423;-64
2022/12/25 15:48:34;;;;;;;;;16.00;15.40;;;;;12.25;50.45;99281.56;6235461;27;97454;-64
2022/12/25 15:51:39;;;;;;;;;19.00;17.80;;;;;12.19;50.82;99292.44;6237302;27;96291;-64
2022/12/25 15:54:43;;;;;;;;;17.00;17.00;;;;;12.12;50.47;99296.03;6236823;27;96915;-64
2022/12/25 15:57:48;;;;;;;;;19.40;18.20;;;;;12.09;50.92;99290.25;6218288;28;99709;-64
2022/12/25 16:00:51;;;;;;;;;21.80;19.40;;;;;12.04;51.14;99277.41;6227712;27;99171;-65
2022/12/25 16:03:54;;;;;;;;;24.00;22.00;;;;;12.04;51.55;99279.28;6235346;27;97056;-65
2022/12/25 16:07:00;;;;;;;;;21.40;19.80;;;;;11.96;51.38;99263.34;6239552;27;96536;-65